Pagina principale
METAR-TAF:

METAR-TAF

Aeroporti :

Wiener Neustadt, Austria

latitudine: 47-50-36N, longitudine: 016-15-29E, altezza: 272 m

Osservazione

Il bollettino è stato emesso 1 ora e 34 minuti fa, alle 19:00 UTC
Vento 7 kt da ovest
Temperature
Pressione

METAR: LOAN 251900Z 28007KT 40KM FEW040CU SCT070CU BKN300CI

Ora: 22:34 (20:34 UTC)

Previsione

Il bollettino è stato emesso 9 ore e 9 minuti fa, alle 11:25 UTC
Previsione valida dal 25 alle 12 UTC al 25 alle 21 UTC
Vento 11 kt da ovest/nord-ovest
Visibilità 10 km o più
Poco nuvoloso ad un'altezza di 4000 ft
Nubi sparse ad un'altezza di 5000 ft
Nuvoloso ad un'altezza di 30000 ft
Temporaneamente
dal 25 alle 12 UTC al 25 alle 19 UTC
Vento 17 kt da nord-ovest con raffiche fino a 27 kt

TAF: LOAN 251125Z 2512/2521 29011KT 9999 FEW040 SCT050 BKN300 TEMPO 2512/2519 31017G27KT

Osservazioni e previsioni meteorologiche di più di 4000 aeroporti (messaggi METAR e TAF).

Le stazioni disponibili sono rappresentate dai dischi gialli e rossi sulla carta.

Puntare il mouse per vedere il nome della stazione.

Clicca sopra per visualizzare le osservazioni e previsioni meteorologiche.

Per cambiare la mappa : fare clic sui pulsanti verdi con una croce nera per ingrandire, il pulsante verde con un trattino per diminuire, o sulla freccia verde per le mappe adiacenti.


METAR-TAF: